sensor_id;sensor_type;location;lat;lon;timestamp;temperature;humidity
13673;DHT22;6909;52.202;9.876;2023-05-14T13:54:15;21.00;1.00
13673;DHT22;6909;52.202;9.876;2023-05-14T13:56:42;20.90;1.00
13673;DHT22;6909;52.202;9.876;2023-05-14T13:59:08;20.80;1.00
13673;DHT22;6909;52.202;9.876;2023-05-14T14:01:35;20.60;1.00
13673;DHT22;6909;52.202;9.876;2023-05-14T14:04:02;20.50;1.00
13673;DHT22;6909;52.202;9.876;2023-05-14T14:06:30;20.60;1.00
13673;DHT22;6909;52.202;9.876;2023-05-14T14:08:57;20.50;1.00
13673;DHT22;6909;52.202;9.876;2023-05-14T14:11:25;20.40;1.00
13673;DHT22;6909;52.202;9.876;2023-05-14T14:13:52;20.40;1.00
13673;DHT22;6909;52.202;9.876;2023-05-14T14:16:18;20.70;1.00
13673;DHT22;6909;52.202;9.876;2023-05-14T14:18:45;20.80;1.00
13673;DHT22;6909;52.202;9.876;2023-05-14T14:21:12;20.90;1.00
13673;DHT22;6909;52.202;9.876;2023-05-14T14:23:42;20.70;1.00
13673;DHT22;6909;52.202;9.876;2023-05-14T14:26:08;20.00;1.00
13673;DHT22;6909;52.202;9.876;2023-05-14T14:28:36;19.30;1.00
13673;DHT22;6909;52.202;9.876;2023-05-14T14:31:04;18.80;1.00
13673;DHT22;6909;52.202;9.876;2023-05-14T14:33:32;17.30;1.00
13673;DHT22;6909;52.202;9.876;2023-05-14T14:35:59;15.50;1.00
13673;DHT22;6909;52.202;9.876;2023-05-14T14:38:25;14.40;99.90
13673;DHT22;6909;52.202;9.876;2023-05-14T14:40:52;13.70;1.00
13673;DHT22;6909;52.202;9.876;2023-05-14T14:43:18;13.60;99.90
13673;DHT22;6909;52.202;9.876;2023-05-14T14:45:46;13.50;1.00
13673;DHT22;6909;52.202;9.876;2023-05-14T14:48:25;13.40;99.90
13673;DHT22;6909;52.202;9.876;2023-05-14T14:50:52;14.10;1.00
13673;DHT22;6909;52.202;9.876;2023-05-14T14:53:19;14.60;99.90
13673;DHT22;6909;52.202;9.876;2023-05-14T14:55:46;14.80;1.00
13673;DHT22;6909;52.202;9.876;2023-05-14T14:58:13;15.20;99.90
13673;DHT22;6909;52.202;9.876;2023-05-14T15:00:39;15.50;1.00
13673;DHT22;6909;52.202;9.876;2023-05-14T15:03:07;16.20;99.90
13673;DHT22;6909;52.202;9.876;2023-05-14T15:05:34;16.40;99.90
13673;DHT22;6909;52.202;9.876;2023-05-14T15:08:01;16.60;84.20
13673;DHT22;6909;52.202;9.876;2023-05-14T15:10:29;16.80;14.70
13673;DHT22;6909;52.202;9.876;2023-05-14T15:12:56;16.80;1.00
13673;DHT22;6909;52.202;9.876;2023-05-14T15:15:23;16.80;1.00
13673;DHT22;6909;52.202;9.876;2023-05-14T15:17:49;16.60;1.00
13673;DHT22;6909;52.202;9.876;2023-05-14T15:20:17;16.70;1.00
13673;DHT22;6909;52.202;9.876;2023-05-14T15:22:44;16.70;1.00
13673;DHT22;6909;52.202;9.876;2023-05-14T15:25:11;16.80;1.00
13673;DHT22;6909;52.202;9.876;2023-05-14T15:27:37;17.10;1.00
13673;DHT22;6909;52.202;9.876;2023-05-14T15:30:05;17.20;1.00
13673;DHT22;6909;52.202;9.876;2023-05-14T15:32:32;17.40;1.00
13673;DHT22;6909;52.202;9.876;2023-05-14T15:34:59;17.50;1.00
13673;DHT22;6909;52.202;9.876;2023-05-14T15:37:27;17.70;1.00
13673;DHT22;6909;52.202;9.876;2023-05-14T15:40:01;17.70;1.00
13673;DHT22;6909;52.202;9.876;2023-05-14T15:42:28;17.80;1.00
13673;DHT22;6909;52.202;9.876;2023-05-14T15:44:55;18.00;1.00
13673;DHT22;6909;52.202;9.876;2023-05-14T15:47:21;18.20;1.00
13673;DHT22;6909;52.202;9.876;2023-05-14T15:49:48;18.20;1.00
13673;DHT22;6909;52.202;9.876;2023-05-14T15:52:15;18.20;1.00
13673;DHT22;6909;52.202;9.876;2023-05-14T15:54:45;18.40;1.00
13673;DHT22;6909;52.202;9.876;2023-05-14T15:57:12;18.80;1.00
13673;DHT22;6909;52.202;9.876;2023-05-14T15:59:39;18.90;1.00
13673;DHT22;6909;52.202;9.876;2023-05-14T16:02:06;19.10;1.00
13673;DHT22;6909;52.202;9.876;2023-05-14T16:04:33;19.30;1.00
13673;DHT22;6909;52.202;9.876;2023-05-14T16:07:01;19.30;1.00
13673;DHT22;6909;52.202;9.876;2023-05-14T16:09:28;19.20;1.00
13673;DHT22;6909;52.202;9.876;2023-05-14T16:11:56;19.30;1.00
13673;DHT22;6909;52.202;9.876;2023-05-14T16:14:23;19.30;1.00
13673;DHT22;6909;52.202;9.876;2023-05-14T16:16:50;19.40;1.00
13673;DHT22;6909;52.202;9.876;2023-05-14T16:19:16;19.40;1.00
13673;DHT22;6909;52.202;9.876;2023-05-14T16:21:43;19.30;1.00
13673;DHT22;6909;52.202;9.876;2023-05-14T16:24:10;19.30;1.00
13673;DHT22;6909;52.202;9.876;2023-05-14T16:26:37;19.40;1.00
13673;DHT22;6909;52.202;9.876;2023-05-14T16:29:05;19.30;1.00
13673;DHT22;6909;52.202;9.876;2023-05-14T16:31:32;19.10;1.00
13673;DHT22;6909;52.202;9.876;2023-05-14T16:33:58;19.10;1.00
13673;DHT22;6909;52.202;9.876;2023-05-14T16:36:25;19.00;1.00
13673;DHT22;6909;52.202;9.876;2023-05-14T16:38:52;19.10;1.00
13673;DHT22;6909;52.202;9.876;2023-05-14T16:41:19;19.00;1.00
13673;DHT22;6909;52.202;9.876;2023-05-14T16:43:46;19.00;1.00
13673;DHT22;6909;52.202;9.876;2023-05-14T16:46:15;19.00;1.00
13673;DHT22;6909;52.202;9.876;2023-05-14T16:48:42;18.90;1.00
13673;DHT22;6909;52.202;9.876;2023-05-14T16:51:09;19.00;1.00
13673;DHT22;6909;52.202;9.876;2023-05-14T16:53:35;19.00;1.00
13673;DHT22;6909;52.202;9.876;2023-05-14T16:56:02;19.00;1.00
13673;DHT22;6909;52.202;9.876;2023-05-14T16:58:29;19.00;1.00
13673;DHT22;6909;52.202;9.876;2023-05-14T17:00:56;19.00;1.00
13673;DHT22;6909;52.202;9.876;2023-05-14T17:03:24;18.90;1.00
13673;DHT22;6909;52.202;9.876;2023-05-14T17:05:50;18.80;1.00
13673;DHT22;6909;52.202;9.876;2023-05-14T17:08:17;18.80;1.00
13673;DHT22;6909;52.202;9.876;2023-05-14T17:10:44;18.80;1.00
13673;DHT22;6909;52.202;9.876;2023-05-14T17:13:11;18.70;1.00
13673;DHT22;6909;52.202;9.876;2023-05-14T17:15:37;18.70;1.00
13673;DHT22;6909;52.202;9.876;2023-05-14T17:18:06;18.60;1.00
13673;DHT22;6909;52.202;9.876;2023-05-14T17:20:34;18.50;1.00
13673;DHT22;6909;52.202;9.876;2023-05-14T17:23:00;18.40;1.00
13673;DHT22;6909;52.202;9.876;2023-05-14T17:25:27;18.40;1.00
13673;DHT22;6909;52.202;9.876;2023-05-14T17:27:54;18.40;1.00
13673;DHT22;6909;52.202;9.876;2023-05-14T17:30:23;18.30;1.00
13673;DHT22;6909;52.202;9.876;2023-05-14T17:32:49;18.30;1.00
13673;DHT22;6909;52.202;9.876;2023-05-14T17:35:16;18.30;1.00
13673;DHT22;6909;52.202;9.876;2023-05-14T17:37:44;18.30;1.00
13673;DHT22;6909;52.202;9.876;2023-05-14T17:40:11;18.30;1.00
13673;DHT22;6909;52.202;9.876;2023-05-14T17:42:38;18.30;1.00
13673;DHT22;6909;52.202;9.876;2023-05-14T17:45:06;18.30;1.00
13673;DHT22;6909;52.202;9.876;2023-05-14T17:47:33;18.20;1.00
13673;DHT22;6909;52.202;9.876;2023-05-14T17:50:00;18.20;1.00
13673;DHT22;6909;52.202;9.876;2023-05-14T17:52:27;18.20;1.00
13673;DHT22;6909;52.202;9.876;2023-05-14T17:54:55;18.10;1.00
13673;DHT22;6909;52.202;9.876;2023-05-14T17:57:21;18.00;1.00
13673;DHT22;6909;52.202;9.876;2023-05-14T17:59:48;18.00;1.00
13673;DHT22;6909;52.202;9.876;2023-05-14T18:02:15;17.90;1.00
13673;DHT22;6909;52.202;9.876;2023-05-14T18:04:41;17.80;1.00
13673;DHT22;6909;52.202;9.876;2023-05-14T18:07:08;17.70;1.00
13673;DHT22;6909;52.202;9.876;2023-05-14T18:09:35;17.60;1.00
13673;DHT22;6909;52.202;9.876;2023-05-14T18:12:03;17.50;1.00
13673;DHT22;6909;52.202;9.876;2023-05-14T18:14:30;17.40;1.00
13673;DHT22;6909;52.202;9.876;2023-05-14T18:16:56;17.30;1.00
13673;DHT22;6909;52.202;9.876;2023-05-14T18:19:23;17.30;1.00
13673;DHT22;6909;52.202;9.876;2023-05-14T18:21:50;17.20;1.00
13673;DHT22;6909;52.202;9.876;2023-05-14T18:24:19;17.10;1.00
13673;DHT22;6909;52.202;9.876;2023-05-14T18:26:46;17.00;1.00
13673;DHT22;6909;52.202;9.876;2023-05-14T18:29:14;17.00;1.00
13673;DHT22;6909;52.202;9.876;2023-05-14T18:31:41;16.80;1.00
13673;DHT22;6909;52.202;9.876;2023-05-14T18:34:08;16.80;1.00
13673;DHT22;6909;52.202;9.876;2023-05-14T18:36:34;16.60;1.00
13673;DHT22;6909;52.202;9.876;2023-05-14T18:39:01;16.50;1.00
13673;DHT22;6909;52.202;9.876;2023-05-14T18:41:28;16.40;1.00
13673;DHT22;6909;52.202;9.876;2023-05-14T18:43:54;16.30;1.00
13673;DHT22;6909;52.202;9.876;2023-05-14T18:46:23;16.30;1.00
13673;DHT22;6909;52.202;9.876;2023-05-14T18:48:50;16.20;1.00
13673;DHT22;6909;52.202;9.876;2023-05-14T18:51:17;16.10;1.00
13673;DHT22;6909;52.202;9.876;2023-05-14T18:53:44;15.90;1.00
13673;DHT22;6909;52.202;9.876;2023-05-14T18:56:10;15.80;1.00
13673;DHT22;6909;52.202;9.876;2023-05-14T18:58:37;15.70;1.00
13673;DHT22;6909;52.202;9.876;2023-05-14T19:01:04;15.60;1.00
13673;DHT22;6909;52.202;9.876;2023-05-14T19:03:32;15.50;1.00
13673;DHT22;6909;52.202;9.876;2023-05-14T19:05:59;15.50;1.00
13673;DHT22;6909;52.202;9.876;2023-05-14T19:08:26;15.30;1.00
13673;DHT22;6909;52.202;9.876;2023-05-14T19:10:52;15.20;1.00
13673;DHT22;6909;52.202;9.876;2023-05-14T19:13:19;15.00;1.00
13673;DHT22;6909;52.202;9.876;2023-05-14T19:15:45;14.80;1.00
13673;DHT22;6909;52.202;9.876;2023-05-14T19:18:12;14.70;1.00
13673;DHT22;6909;52.202;9.876;2023-05-14T19:20:40;14.60;1.00
13673;DHT22;6909;52.202;9.876;2023-05-14T19:23:07;14.50;35.70
13673;DHT22;6909;52.202;9.876;2023-05-14T19:25:34;14.40;99.90
13673;DHT22;6909;52.202;9.876;2023-05-14T19:28:01;14.30;99.90
13673;DHT22;6909;52.202;9.876;2023-05-14T19:30:29;14.20;99.90
13673;DHT22;6909;52.202;9.876;2023-05-14T19:32:55;14.00;1.00
13673;DHT22;6909;52.202;9.876;2023-05-14T19:35:22;14.10;99.90
13673;DHT22;6909;52.202;9.876;2023-05-14T19:37:50;14.00;1.00
13673;DHT22;6909;52.202;9.876;2023-05-14T19:40:17;13.80;1.00
13673;DHT22;6909;52.202;9.876;2023-05-14T19:42:44;13.70;1.00
13673;DHT22;6909;52.202;9.876;2023-05-14T19:45:10;13.60;1.00
13673;DHT22;6909;52.202;9.876;2023-05-14T19:47:37;13.60;1.00
13673;DHT22;6909;52.202;9.876;2023-05-14T19:50:04;13.40;1.00
13673;DHT22;6909;52.202;9.876;2023-05-14T19:52:32;13.30;1.00
13673;DHT22;6909;52.202;9.876;2023-05-14T19:55:00;13.20;1.00
13673;DHT22;6909;52.202;9.876;2023-05-14T19:57:27;13.10;14.80
13673;DHT22;6909;52.202;9.876;2023-05-14T19:59:54;13.00;1.00
13673;DHT22;6909;52.202;9.876;2023-05-14T20:02:21;13.00;99.90
13673;DHT22;6909;52.202;9.876;2023-05-14T20:04:47;12.90;99.90
13673;DHT22;6909;52.202;9.876;2023-05-14T20:07:14;13.30;1.00
13673;DHT22;6909;52.202;9.876;2023-05-14T20:09:41;13.20;1.00
13673;DHT22;6909;52.202;9.876;2023-05-14T20:12:09;13.30;1.00
13673;DHT22;6909;52.202;9.876;2023-05-14T20:14:37;13.30;1.00
13673;DHT22;6909;52.202;9.876;2023-05-14T20:17:05;13.20;24.40
13673;DHT22;6909;52.202;9.876;2023-05-14T20:19:32;13.10;1.00
13673;DHT22;6909;52.202;9.876;2023-05-14T20:21:58;13.10;1.00
13673;DHT22;6909;52.202;9.876;2023-05-14T20:24:25;13.10;99.90
13673;DHT22;6909;52.202;9.876;2023-05-14T20:26:52;13.00;71.90
13673;DHT22;6909;52.202;9.876;2023-05-14T20:29:20;13.00;39.90
13673;DHT22;6909;52.202;9.876;2023-05-14T20:31:47;12.90;99.90
13673;DHT22;6909;52.202;9.876;2023-05-14T20:34:13;12.80;99.90
13673;DHT22;6909;52.202;9.876;2023-05-14T20:36:40;12.80;99.90
13673;DHT22;6909;52.202;9.876;2023-05-14T20:39:07;12.90;99.90
13673;DHT22;6909;52.202;9.876;2023-05-14T20:41:35;12.90;99.90
13673;DHT22;6909;52.202;9.876;2023-05-14T20:44:02;12.90;99.90
13673;DHT22;6909;52.202;9.876;2023-05-14T20:46:30;12.80;99.90
13673;DHT22;6909;52.202;9.876;2023-05-14T20:48:59;12.80;1.00
13673;DHT22;6909;52.202;9.876;2023-05-14T20:51:26;12.70;1.00
13673;DHT22;6909;52.202;9.876;2023-05-14T20:53:53;12.70;1.00
13673;DHT22;6909;52.202;9.876;2023-05-14T20:56:19;12.70;1.00
13673;DHT22;6909;52.202;9.876;2023-05-14T20:58:46;12.60;1.00
13673;DHT22;6909;52.202;9.876;2023-05-14T21:01:13;12.70;1.00
13673;DHT22;6909;52.202;9.876;2023-05-14T21:03:41;12.60;1.00
13673;DHT22;6909;52.202;9.876;2023-05-14T21:06:08;12.60;99.90
13673;DHT22;6909;52.202;9.876;2023-05-14T21:08:35;12.50;99.30
13673;DHT22;6909;52.202;9.876;2023-05-14T21:11:03;12.50;78.10
13673;DHT22;6909;52.202;9.876;2023-05-14T21:13:30;12.40;39.50
13673;DHT22;6909;52.202;9.876;2023-05-14T21:15:56;12.30;99.90
13673;DHT22;6909;52.202;9.876;2023-05-14T21:18:24;12.20;99.90
13673;DHT22;6909;52.202;9.876;2023-05-14T21:20:56;12.00;99.90
13673;DHT22;6909;52.202;9.876;2023-05-14T21:23:23;11.90;99.90
13673;DHT22;6909;52.202;9.876;2023-05-14T21:25:49;11.70;1.00
13673;DHT22;6909;52.202;9.876;2023-05-14T21:28:19;11.70;64.10
13673;DHT22;6909;52.202;9.876;2023-05-14T21:30:45;11.70;99.90
13673;DHT22;6909;52.202;9.876;2023-05-14T21:33:12;11.60;1.00
13673;DHT22;6909;52.202;9.876;2023-05-14T21:35:40;11.50;59.30
13673;DHT22;6909;52.202;9.876;2023-05-14T21:38:08;11.40;99.90
13673;DHT22;6909;52.202;9.876;2023-05-14T21:40:34;11.30;99.90
13673;DHT22;6909;52.202;9.876;2023-05-14T21:43:01;11.30;1.00
13673;DHT22;6909;52.202;9.876;2023-05-14T21:45:28;11.30;1.00
13673;DHT22;6909;52.202;9.876;2023-05-14T21:47:54;11.30;1.00
13673;DHT22;6909;52.202;9.876;2023-05-14T21:50:21;11.20;1.00
13673;DHT22;6909;52.202;9.876;2023-05-14T21:52:48;11.20;66.10
13673;DHT22;6909;52.202;9.876;2023-05-14T21:55:16;11.20;1.00
13673;DHT22;6909;52.202;9.876;2023-05-14T21:57:43;11.20;1.00
13673;DHT22;6909;52.202;9.876;2023-05-14T22:00:10;11.20;99.90
13673;DHT22;6909;52.202;9.876;2023-05-14T22:02:37;11.20;1.00
13673;DHT22;6909;52.202;9.876;2023-05-14T22:05:04;11.20;1.00
13673;DHT22;6909;52.202;9.876;2023-05-14T22:07:31;11.20;99.90
13673;DHT22;6909;52.202;9.876;2023-05-14T22:09:58;11.20;47.70
13673;DHT22;6909;52.202;9.876;2023-05-14T22:12:26;11.10;35.30
13673;DHT22;6909;52.202;9.876;2023-05-14T22:14:53;11.20;99.90
13673;DHT22;6909;52.202;9.876;2023-05-14T22:17:20;11.20;99.90
13673;DHT22;6909;52.202;9.876;2023-05-14T22:19:47;11.20;99.90
13673;DHT22;6909;52.202;9.876;2023-05-14T22:22:13;11.10;99.90
13673;DHT22;6909;52.202;9.876;2023-05-14T22:24:40;11.00;1.00
13673;DHT22;6909;52.202;9.876;2023-05-14T22:27:07;11.00;1.00
13673;DHT22;6909;52.202;9.876;2023-05-14T22:29:34;11.00;1.00
13673;DHT22;6909;52.202;9.876;2023-05-14T22:32:01;10.90;1.00
13673;DHT22;6909;52.202;9.876;2023-05-14T22:34:28;10.90;99.90
13673;DHT22;6909;52.202;9.876;2023-05-14T22:36:55;10.80;1.00
13673;DHT22;6909;52.202;9.876;2023-05-14T22:39:21;10.80;1.00
13673;DHT22;6909;52.202;9.876;2023-05-14T22:41:48;10.80;1.00
13673;DHT22;6909;52.202;9.876;2023-05-14T22:44:19;10.70;99.90
13673;DHT22;6909;52.202;9.876;2023-05-14T22:46:47;10.60;1.00
13673;DHT22;6909;52.202;9.876;2023-05-14T22:49:14;10.70;1.00
13673;DHT22;6909;52.202;9.876;2023-05-14T22:51:40;10.80;1.00
13673;DHT22;6909;52.202;9.876;2023-05-14T22:54:07;10.80;1.00
13673;DHT22;6909;52.202;9.876;2023-05-14T22:56:35;10.80;99.90
13673;DHT22;6909;52.202;9.876;2023-05-14T22:59:02;10.90;1.00
13673;DHT22;6909;52.202;9.876;2023-05-14T23:01:29;10.80;99.90
13673;DHT22;6909;52.202;9.876;2023-05-14T23:03:57;10.70;96.90
13673;DHT22;6909;52.202;9.876;2023-05-14T23:06:24;10.70;1.00
13673;DHT22;6909;52.202;9.876;2023-05-14T23:08:51;10.60;1.00
13673;DHT22;6909;52.202;9.876;2023-05-14T23:11:17;10.50;27.60
13673;DHT22;6909;52.202;9.876;2023-05-14T23:13:44;10.50;99.90
13673;DHT22;6909;52.202;9.876;2023-05-14T23:16:11;10.50;99.90
13673;DHT22;6909;52.202;9.876;2023-05-14T23:18:37;10.50;1.00
13673;DHT22;6909;52.202;9.876;2023-05-14T23:21:05;10.60;1.00
13673;DHT22;6909;52.202;9.876;2023-05-14T23:23:32;10.60;1.00
13673;DHT22;6909;52.202;9.876;2023-05-14T23:25:58;10.60;1.00
13673;DHT22;6909;52.202;9.876;2023-05-14T23:28:25;10.50;1.00
13673;DHT22;6909;52.202;9.876;2023-05-14T23:30:52;10.50;1.00
13673;DHT22;6909;52.202;9.876;2023-05-14T23:33:19;10.50;1.00
13673;DHT22;6909;52.202;9.876;2023-05-14T23:35:46;10.50;99.90
13673;DHT22;6909;52.202;9.876;2023-05-14T23:38:14;10.40;99.90
13673;DHT22;6909;52.202;9.876;2023-05-14T23:40:41;10.40;99.90
13673;DHT22;6909;52.202;9.876;2023-05-14T23:43:07;10.40;99.90
13673;DHT22;6909;52.202;9.876;2023-05-14T23:45:34;10.40;99.90
13673;DHT22;6909;52.202;9.876;2023-05-14T23:48:01;10.40;48.30
13673;DHT22;6909;52.202;9.876;2023-05-14T23:50:28;10.40;1.00
13673;DHT22;6909;52.202;9.876;2023-05-14T23:52:55;10.60;1.00
13673;DHT22;6909;52.202;9.876;2023-05-14T23:55:23;10.60;1.00
13673;DHT22;6909;52.202;9.876;2023-05-14T23:57:50;10.50;1.00
